createdAt,value
2022-10-17T00:02:10.654Z,97.95
2022-10-17T00:06:15.303Z,97.76
2022-10-17T00:10:17.270Z,98.42
2022-10-17T00:14:18.948Z,98.17
2022-10-17T00:18:20.709Z,98.47
2022-10-17T00:22:22.424Z,98.74
2022-10-17T00:26:24.165Z,99.10
2022-10-17T00:30:25.871Z,99.18
2022-10-17T00:34:29.223Z,99.13
2022-10-17T00:38:31.745Z,99.53
2022-10-17T00:42:33.711Z,99.37
2022-10-17T00:46:38.417Z,99.38
2022-10-17T00:50:48.882Z,99.65
2022-10-17T00:54:56.413Z,99.78
2022-10-17T00:58:58.386Z,100.00
2022-10-17T01:03:00.126Z,100.00
2022-10-17T01:07:01.800Z,100.00
2022-10-17T01:11:14.915Z,100.00
2022-10-17T01:15:34.539Z,100.00
2022-10-17T01:19:54.933Z,100.00
2022-10-17T01:24:14.502Z,100.00
2022-10-17T01:29:05.942Z,100.00
2022-10-17T01:33:32.813Z,100.00
2022-10-17T01:37:46.621Z,100.00
2022-10-17T01:42:26.707Z,100.00
2022-10-17T01:46:37.490Z,100.00
2022-10-17T01:50:44.225Z,100.00
2022-10-17T01:54:52.472Z,100.00
2022-10-17T01:58:57.634Z,100.00
2022-10-17T02:03:03.477Z,100.00
2022-10-17T02:07:13.567Z,100.00
2022-10-17T02:11:23.949Z,100.00
2022-10-17T02:15:44.658Z,100.00
2022-10-17T02:20:15.670Z,100.00
2022-10-17T02:24:23.598Z,100.00
2022-10-17T02:28:47.637Z,100.00
2022-10-17T02:33:00.974Z,100.00
2022-10-17T02:37:05.741Z,100.00
2022-10-17T02:41:11.221Z,100.00
2022-10-17T02:45:14.927Z,100.00
2022-10-17T02:49:22.090Z,100.00
2022-10-17T02:53:32.684Z,100.00
2022-10-17T02:57:39.826Z,100.00
2022-10-17T03:01:42.546Z,100.00
2022-10-17T03:05:44.231Z,100.00
2022-10-17T03:09:45.895Z,100.00
2022-10-17T03:13:47.799Z,100.00
2022-10-17T03:17:51.426Z,100.00
2022-10-17T03:21:54.228Z,100.00
2022-10-17T03:25:56.721Z,100.00
2022-10-17T03:29:58.800Z,100.00
2022-10-17T03:34:02.850Z,100.00
2022-10-17T03:38:04.707Z,100.00
2022-10-17T03:42:06.472Z,100.00
2022-10-17T03:46:08.463Z,100.00
2022-10-17T03:50:11.695Z,100.00
2022-10-17T03:54:14.698Z,100.00
2022-10-17T03:58:16.982Z,100.00
2022-10-17T04:02:19.560Z,100.00
2022-10-17T04:06:22.287Z,100.00
2022-10-17T04:10:24.394Z,100.00
2022-10-17T04:14:26.640Z,100.00
2022-10-17T04:18:29.334Z,100.00
2022-10-17T04:22:31.383Z,100.00
2022-10-17T04:26:33.583Z,100.00
2022-10-17T04:30:35.370Z,100.00
2022-10-17T04:34:37.110Z,100.00
2022-10-17T04:38:38.965Z,100.00
2022-10-17T04:42:40.940Z,100.00
2022-10-17T04:46:44.859Z,100.00
2022-10-17T04:50:57.499Z,100.00
2022-10-17T04:55:16.691Z,100.00
2022-10-17T04:59:18.470Z,100.00
2022-10-17T05:03:22.828Z,100.00
2022-10-17T05:07:24.509Z,100.00
2022-10-17T05:11:52.340Z,100.00
2022-10-17T05:15:54.315Z,100.00
2022-10-17T05:19:56.408Z,100.00
2022-10-17T05:23:58.306Z,100.00
2022-10-17T05:28:00.130Z,100.00
2022-10-17T05:36:23.550Z,100.00
2022-10-17T05:40:26.590Z,100.00
2022-10-17T05:44:29.325Z,100.00
2022-10-17T05:48:34.900Z,100.00
2022-10-17T05:52:37.002Z,100.00
2022-10-17T05:56:52.596Z,100.00
2022-10-17T06:01:07.162Z,100.00
2022-10-17T06:05:11.115Z,100.00
2022-10-17T06:09:13.185Z,100.00
2022-10-17T06:13:18.876Z,100.00
2022-10-17T06:17:25.224Z,100.00
2022-10-17T06:21:27.966Z,100.00
2022-10-17T06:25:39.560Z,100.00
2022-10-17T06:29:41.494Z,100.00
2022-10-17T06:33:44.060Z,100.00
2022-10-17T06:37:45.842Z,100.00
2022-10-17T06:41:48.397Z,100.00
2022-10-17T06:45:53.595Z,100.00
2022-10-17T06:50:08.964Z,100.00
2022-10-17T06:54:22.268Z,100.00
2022-10-17T06:58:40.327Z,100.00
2022-10-17T07:03:02.257Z,100.00
2022-10-17T07:07:04.432Z,100.00
2022-10-17T07:11:15.108Z,100.00
2022-10-17T07:15:17.069Z,100.00
2022-10-17T07:19:20.048Z,100.00
2022-10-17T07:23:23.058Z,100.00
2022-10-17T07:27:24.968Z,100.00
2022-10-17T07:31:27.125Z,100.00
2022-10-17T07:35:28.913Z,100.00
2022-10-17T07:39:31.146Z,100.00
2022-10-17T07:43:34.365Z,100.00
2022-10-17T07:47:36.819Z,100.00
2022-10-17T07:51:41.429Z,100.00
2022-10-17T07:55:43.247Z,100.00
2022-10-17T07:59:44.898Z,100.00
2022-10-17T08:03:48.835Z,100.00
2022-10-17T08:07:50.562Z,100.00
2022-10-17T08:11:52.398Z,100.00
2022-10-17T08:15:54.022Z,100.00
2022-10-17T08:19:55.714Z,100.00
2022-10-17T08:23:57.523Z,100.00
2022-10-17T08:27:59.404Z,100.00
2022-10-17T08:32:02.454Z,100.00
2022-10-17T08:36:06.646Z,100.00
2022-10-17T08:40:17.361Z,100.00
2022-10-17T08:44:27.720Z,100.00
2022-10-17T08:48:32.996Z,100.00
2022-10-17T08:52:58.333Z,100.00
2022-10-17T08:56:59.993Z,100.00
2022-10-17T09:01:13.796Z,100.00
2022-10-17T09:05:49.361Z,100.00
2022-10-17T09:10:20.876Z,100.00
2022-10-17T09:14:49.308Z,100.00
2022-10-17T09:19:03.454Z,100.00
2022-10-17T09:23:21.597Z,100.00
2022-10-17T09:27:44.538Z,100.00
2022-10-17T09:31:53.830Z,100.00
2022-10-17T09:35:57.408Z,100.00
2022-10-17T09:39:59.132Z,100.00
2022-10-17T09:44:23.751Z,100.00
2022-10-17T09:48:35.926Z,100.00
2022-10-17T09:52:47.609Z,100.00
2022-10-17T09:57:10.382Z,100.00
2022-10-17T10:01:24.612Z,100.00
2022-10-17T10:05:26.434Z,100.00
2022-10-17T10:09:31.687Z,100.00
2022-10-17T10:13:34.694Z,100.00
2022-10-17T10:17:42.021Z,100.00
2022-10-17T10:21:56.406Z,100.00
2022-10-17T10:26:05.052Z,100.00
2022-10-17T10:30:07.291Z,100.00
2022-10-17T10:34:18.300Z,100.00
2022-10-17T10:38:21.084Z,100.00
2022-10-17T10:42:32.442Z,100.00
2022-10-17T10:46:34.386Z,100.00
2022-10-17T10:50:59.603Z,100.00
2022-10-17T10:55:17.785Z,100.00
2022-10-17T10:59:45.814Z,100.00
2022-10-17T11:04:26.447Z,100.00
2022-10-17T11:08:49.860Z,100.00
2022-10-17T11:12:59.019Z,100.00
2022-10-17T11:17:15.850Z,100.00
2022-10-17T11:21:29.339Z,100.00
2022-10-17T11:25:37.145Z,100.00
2022-10-17T11:29:41.510Z,100.00
2022-10-17T11:33:47.263Z,100.00
2022-10-17T11:38:06.709Z,100.00
2022-10-17T11:42:27.615Z,100.00
2022-10-17T11:46:30.690Z,100.00
2022-10-17T11:55:19.636Z,100.00
2022-10-17T11:59:53.418Z,100.00
2022-10-17T12:04:34.490Z,100.00
2022-10-17T12:08:54.698Z,100.00
2022-10-17T12:12:56.395Z,100.00
2022-10-17T12:16:58.182Z,100.00
2022-10-17T12:21:01.007Z,100.00
2022-10-17T12:25:04.328Z,100.00
2022-10-17T12:29:30.300Z,100.00
2022-10-17T12:33:48.690Z,100.00
2022-10-17T12:37:57.319Z,100.00
2022-10-17T12:42:00.538Z,100.00
2022-10-17T12:46:04.450Z,100.00
2022-10-17T12:50:56.531Z,100.00
2022-10-17T12:55:12.629Z,100.00
2022-10-17T12:59:25.854Z,100.00
2022-10-17T13:03:32.079Z,100.00
2022-10-17T13:07:35.800Z,100.00
2022-10-17T13:11:39.619Z,100.00
2022-10-17T13:15:53.707Z,100.00
2022-10-17T13:19:55.810Z,100.00
2022-10-17T13:23:57.532Z,100.00
2022-10-17T13:28:12.370Z,100.00
2022-10-17T13:32:14.122Z,100.00
2022-10-17T13:36:16.384Z,100.00
2022-10-17T13:40:40.805Z,100.00
2022-10-17T13:44:43.533Z,100.00
2022-10-17T13:48:45.306Z,100.00
2022-10-17T13:52:47.034Z,100.00
2022-10-17T14:01:18.966Z,100.00
2022-10-17T14:05:23.419Z,100.00
2022-10-17T14:09:28.967Z,100.00
2022-10-17T14:13:36.023Z,100.00
2022-10-17T14:17:38.681Z,100.00
2022-10-17T14:21:44.668Z,100.00
2022-10-17T14:25:46.905Z,100.00
2022-10-17T14:29:53.166Z,100.00
2022-10-17T14:33:55.143Z,100.00
2022-10-17T14:38:03.239Z,100.00
2022-10-17T14:42:04.967Z,100.00
2022-10-17T14:46:06.942Z,100.00
2022-10-17T14:50:21.595Z,100.00
2022-10-17T14:54:27.402Z,100.00
2022-10-17T14:58:31.329Z,100.00
2022-10-17T15:02:33.291Z,100.00
2022-10-17T15:06:35.402Z,100.00
2022-10-17T15:10:37.731Z,100.00
2022-10-17T15:14:39.555Z,100.00
2022-10-17T15:18:41.215Z,100.00
2022-10-17T15:22:42.922Z,100.00
2022-10-17T15:26:44.750Z,100.00
2022-10-17T15:30:46.475Z,100.00
2022-10-17T15:34:48.168Z,100.00
2022-10-17T15:38:52.422Z,100.00
2022-10-17T15:42:54.713Z,100.00
2022-10-17T15:46:57.069Z,100.00
2022-10-17T15:50:58.722Z,100.00
2022-10-17T15:55:04.150Z,100.00
2022-10-17T15:59:18.071Z,100.00
2022-10-17T16:03:19.802Z,100.00
2022-10-17T16:07:21.868Z,100.00
2022-10-17T16:11:41.106Z,100.00
2022-10-17T16:15:42.895Z,100.00
2022-10-17T16:19:45.343Z,100.00
2022-10-17T16:23:47.001Z,100.00
2022-10-17T16:27:50.802Z,100.00
2022-10-17T16:31:52.489Z,100.00
2022-10-17T16:35:54.230Z,100.00
2022-10-17T16:39:55.882Z,100.00
2022-10-17T16:44:00.318Z,100.00
2022-10-17T16:48:01.992Z,100.00
2022-10-17T16:52:04.386Z,100.00
2022-10-17T16:56:07.433Z,100.00
2022-10-17T17:00:11.942Z,100.00
2022-10-17T17:04:13.661Z,100.00
2022-10-17T17:08:15.332Z,100.00
2022-10-17T17:12:17.068Z,100.00
2022-10-17T17:16:21.805Z,100.00
2022-10-17T17:20:23.506Z,100.00
2022-10-17T17:24:25.625Z,100.00
2022-10-17T17:28:28.291Z,100.00
2022-10-17T17:32:30.082Z,100.00
2022-10-17T17:36:35.079Z,100.00
2022-10-17T17:40:36.742Z,100.00
2022-10-17T17:44:38.592Z,100.00
2022-10-17T17:48:41.599Z,100.00
2022-10-17T17:52:45.645Z,100.00
2022-10-17T17:56:47.358Z,100.00
2022-10-17T18:00:49.065Z,100.00
2022-10-17T18:04:50.888Z,100.00
2022-10-17T18:08:55.719Z,100.00
2022-10-17T18:12:57.395Z,100.00
2022-10-17T18:16:59.079Z,100.00
2022-10-17T18:21:01.638Z,100.00
2022-10-17T18:25:03.479Z,100.00
2022-10-17T18:29:05.452Z,100.00
2022-10-17T18:33:07.103Z,100.00
2022-10-17T18:37:09.367Z,100.00
2022-10-17T18:41:15.121Z,100.00
2022-10-17T18:45:17.522Z,100.00
2022-10-17T18:49:20.515Z,100.00
2022-10-17T18:53:22.723Z,100.00
2022-10-17T18:57:26.147Z,100.00
2022-10-17T19:01:28.582Z,100.00
2022-10-17T19:05:33.844Z,100.00
2022-10-17T19:09:35.562Z,100.00
2022-10-17T19:13:37.611Z,100.00
2022-10-17T19:17:39.486Z,100.00
2022-10-17T19:21:41.647Z,100.00
2022-10-17T19:25:43.601Z,100.00
2022-10-17T19:29:45.419Z,100.00
2022-10-17T19:33:49.726Z,100.00
2022-10-17T19:37:51.700Z,100.00
2022-10-17T19:41:53.369Z,100.00
2022-10-17T19:46:01.133Z,100.00
2022-10-17T19:54:05.500Z,100.00
2022-10-17T19:58:07.189Z,100.00
2022-10-17T20:02:11.746Z,100.00
2022-10-17T20:06:13.981Z,100.00
2022-10-17T20:10:15.646Z,100.00
2022-10-17T20:14:17.676Z,100.00
2022-10-17T20:18:19.318Z,100.00
2022-10-17T20:22:20.989Z,100.00
2022-10-17T20:26:37.025Z,100.00
2022-10-17T20:30:46.204Z,100.00
2022-10-17T20:34:47.838Z,100.00
2022-10-17T20:38:57.663Z,100.00
2022-10-17T20:42:59.531Z,100.00
2022-10-17T20:47:02.690Z,100.00
2022-10-17T20:51:11.184Z,100.00
2022-10-17T20:55:12.813Z,100.00
2022-10-17T20:59:16.749Z,100.00
2022-10-17T21:03:18.440Z,100.00
2022-10-17T21:07:22.241Z,100.00
2022-10-17T21:11:27.607Z,100.00
2022-10-17T21:15:29.316Z,100.00
2022-10-17T21:19:31.080Z,100.00
2022-10-17T21:23:32.759Z,100.00
2022-10-17T21:27:34.563Z,100.00
2022-10-17T21:31:38.329Z,100.00
2022-10-17T21:35:39.985Z,100.00
2022-10-17T21:39:41.867Z,100.00
2022-10-17T21:43:44.606Z,100.00
2022-10-17T21:48:11.056Z,100.00
2022-10-17T21:52:07.929Z,100.00
2022-10-17T21:56:18.750Z,100.00
2022-10-17T22:00:20.512Z,100.00
2022-10-17T22:04:22.167Z,100.00
2022-10-17T22:08:23.879Z,100.00
2022-10-17T22:12:26.110Z,100.00
2022-10-17T22:16:28.602Z,100.00
2022-10-17T22:20:30.315Z,100.00
2022-10-17T22:24:32.017Z,100.00
2022-10-17T22:28:34.173Z,100.00
2022-10-17T22:32:35.970Z,100.00
2022-10-17T22:36:37.648Z,100.00
2022-10-17T22:40:39.700Z,100.00
2022-10-17T22:44:41.367Z,100.00
2022-10-17T22:48:43.677Z,100.00
2022-10-17T22:52:45.408Z,100.00
2022-10-17T22:56:47.090Z,100.00
2022-10-17T23:00:50.497Z,100.00
2022-10-17T23:04:52.162Z,100.00
2022-10-17T23:08:53.917Z,100.00
2022-10-17T23:12:55.590Z,100.00
2022-10-17T23:16:57.252Z,100.00
2022-10-17T23:20:58.952Z,100.00
2022-10-17T23:25:00.690Z,100.00
2022-10-17T23:29:02.462Z,100.00
2022-10-17T23:33:04.340Z,100.00
2022-10-17T23:37:06.022Z,100.00
2022-10-17T23:41:08.101Z,100.00
2022-10-17T23:45:11.616Z,100.00
2022-10-17T23:49:13.330Z,100.00
2022-10-17T23:53:15.084Z,100.00
2022-10-17T23:57:16.860Z,100.00
